Terminal Aerodrome Forecast
Issued by NWS

Home | Current Version | Previous Version | Text Only | Print | Product List | Glossary On
Versions: 1 2 3 4 5 6 7 8 9 10 11 12 13 14 15
186
FTUS44 KMAF 222111 AAA
TAFHOB
TAF AMD
KHOB 222111Z 2221/2318 VRB06KT P6SM SCT080
     FM230200 01011KT P6SM SCT040 BKN070
      TEMPO 2302/2306 VRB20G35KT 2SM +TSRA BR BKN015 OVC040CB=

USA.gov is the U.S. government's official web portal to all federal, state and local government web resources and services.